Time;durP1;ratioP1;P1;durP2;ratioP2;P2;SDS_P1;SDS_P2;PMS_P1;PMS_P2;Temp;Humidity;BMP_temperature;BMP_pressure;BME280_temperature;BME280_humidity;BME280_pressure;Samples;Min_cycle;Max_cycle;Signal;HPM_P1;HPM_P2
2020/12/12 00:01:20;;;;;;;25.55;12.38;;;5.40;95.70;;;;;;5013212;28;20065;-70
2020/12/12 00:03:46;;;;;;;27.23;11.80;;;5.50;95.50;;;;;;5012973;28;20117;-70
2020/12/12 00:06:12;;;;;;;26.05;12.07;;;5.60;95.50;;;;;;5013484;28;20041;-71
2020/12/12 00:08:38;;;;;;;25.75;12.13;;;5.70;95.40;;;;;;5012302;28;20238;-70
2020/12/12 00:11:03;;;;;;;24.65;12.20;;;5.60;95.30;;;;;;5012937;28;20068;-70
2020/12/12 00:13:29;;;;;;;24.95;12.20;;;5.80;95.40;;;;;;5011854;28;20417;-71
2020/12/12 00:15:55;;;;;;;24.98;12.35;;;5.70;95.30;;;;;;5012722;28;20026;-70
2020/12/12 00:18:20;;;;;;;26.67;12.02;;;5.80;95.40;;;;;;5011425;28;20347;-70
2020/12/12 00:20:46;;;;;;;23.23;11.77;;;5.70;95.40;;;;;;5014237;28;20079;-70
2020/12/12 00:23:11;;;;;;;23.60;12.30;;;5.70;95.60;;;;;;5012746;28;20098;-70
2020/12/12 00:25:37;;;;;;;23.83;11.43;;;5.70;95.60;;;;;;5011719;28;20041;-71
2020/12/12 00:28:03;;;;;;;22.75;11.52;;;5.70;95.70;;;;;;5011962;28;20041;-71
2020/12/12 00:30:28;;;;;;;23.17;11.50;;;5.60;95.60;;;;;;5012492;28;20195;-71
2020/12/12 00:32:54;;;;;;;27.38;12.65;;;5.60;95.70;;;;;;5014071;28;20036;-71
2020/12/12 00:35:20;;;;;;;22.52;11.38;;;5.60;95.80;;;;;;5012618;28;20056;-70
2020/12/12 00:37:45;;;;;;;24.02;10.95;;;5.80;96.00;;;;;;5011688;28;20034;-71
2020/12/12 00:40:11;;;;;;;27.67;12.55;;;5.70;95.90;;;;;;5012596;28;20033;-71
2020/12/12 00:42:37;;;;;;;26.02;11.82;;;5.60;95.80;;;;;;5011439;28;20022;-72
2020/12/12 00:45:03;;;;;;;26.30;12.18;;;5.50;95.90;;;;;;5013737;28;20078;-72
2020/12/12 00:47:29;;;;;;;24.77;11.63;;;5.70;96.10;;;;;;5012360;28;20076;-71
2020/12/12 00:49:54;;;;;;;24.58;12.05;;;5.80;96.00;;;;;;5012270;28;20069;-70
2020/12/12 00:52:20;;;;;;;27.80;11.82;;;5.80;95.80;;;;;;5012334;28;20030;-71
2020/12/12 00:54:45;;;;;;;25.63;12.95;;;5.80;95.70;;;;;;5012000;28;20026;-72
2020/12/12 00:57:11;;;;;;;22.77;11.65;;;5.90;95.90;;;;;;5013627;28;20026;-71
2020/12/12 00:59:37;;;;;;;32.42;12.55;;;5.90;95.90;;;;;;5012313;28;20116;-70
2020/12/12 01:02:03;;;;;;;30.67;13.15;;;5.90;95.70;;;;;;5011719;28;20034;-71
2020/12/12 01:04:28;;;;;;;26.88;12.27;;;6.00;95.70;;;;;;5012150;28;20145;-72
2020/12/12 01:06:54;;;;;;;30.08;12.15;;;5.90;95.60;;;;;;5011375;28;20057;-71
2020/12/12 01:09:19;;;;;;;28.67;12.50;;;6.00;95.70;;;;;;5013179;28;20029;-72
2020/12/12 01:11:45;;;;;;;28.02;12.85;;;6.00;95.60;;;;;;5012310;28;20125;-70
2020/12/12 01:14:11;;;;;;;25.77;12.77;;;5.90;95.70;;;;;;5012049;28;20455;-71
2020/12/12 01:16:36;;;;;;;25.10;11.80;;;5.90;95.70;;;;;;5012022;28;20418;-71
2020/12/12 01:19:02;;;;;;;24.95;12.52;;;5.90;95.70;;;;;;5011639;28;20439;-72
2020/12/12 01:21:28;;;;;;;29.38;13.15;;;5.80;95.80;;;;;;5011176;28;20053;-71
2020/12/12 01:23:53;;;;;;;26.25;12.82;;;5.80;95.90;;;;;;5013494;28;20448;-70
2020/12/12 01:26:19;;;;;;;24.52;12.40;;;5.80;96.00;;;;;;5011681;28;20041;-71
2020/12/12 01:28:45;;;;;;;27.42;12.73;;;5.80;96.30;;;;;;5012096;28;20443;-71
2020/12/12 01:31:12;;;;;;;30.42;13.80;;;5.70;96.40;;;;;;5011874;28;20065;-71
2020/12/12 01:33:38;;;;;;;29.40;13.95;;;5.80;96.50;;;;;;5011706;28;20022;-72
2020/12/12 01:36:07;;;;;;;27.67;12.88;;;5.90;96.60;;;;;;5013164;28;20022;-71
2020/12/12 01:38:34;;;;;;;30.55;13.10;;;5.80;96.70;;;;;;5011479;28;20031;-72
2020/12/12 01:41:00;;;;;;;29.67;14.45;;;5.70;97.00;;;;;;5011380;28;20490;-71
2020/12/12 01:43:26;;;;;;;30.67;14.05;;;5.60;97.40;;;;;;5011670;28;20030;-71
2020/12/12 01:45:52;;;;;;;32.92;13.82;;;5.60;97.50;;;;;;5011294;28;20396;-71
2020/12/12 01:48:17;;;;;;;31.75;13.90;;;5.70;97.50;;;;;;5011808;28;20115;-71
2020/12/12 01:50:44;;;;;;;32.45;14.65;;;5.70;97.50;;;;;;5011505;28;20042;-71
2020/12/12 01:53:10;;;;;;;34.28;15.20;;;5.70;97.50;;;;;;5011221;28;20049;-70
2020/12/12 01:55:36;;;;;;;30.25;14.98;;;5.60;97.70;;;;;;5011487;28;20053;-70
2020/12/12 01:58:02;;;;;;;27.38;14.13;;;5.60;97.80;;;;;;5011413;28;20147;-71
2020/12/12 02:00:28;;;;;;;29.75;14.95;;;5.60;97.70;;;;;;5011336;28;20706;-71
2020/12/12 02:02:56;;;;;;;33.13;14.95;;;5.70;97.90;;;;;;5012068;28;20029;-71
2020/12/12 02:05:42;;;;;;;30.50;14.55;;;5.60;97.80;;;;;;5011289;28;20456;-72
2020/12/12 02:08:17;;;;;;;36.03;16.08;;;5.60;97.90;;;;;;5010325;28;20038;-70
2020/12/12 02:10:46;;;;;;;36.42;14.80;;;5.60;98.20;;;;;;5010333;28;20464;-71
2020/12/12 02:13:13;;;;;;;32.10;16.10;;;5.70;98.40;;;;;;5010254;28;20341;-71
2020/12/12 02:15:39;;;;;;;33.00;16.33;;;5.60;98.40;;;;;;5011347;28;20384;-70
2020/12/12 02:18:05;;;;;;;36.45;15.65;;;5.80;98.40;;;;;;5012753;28;20053;-71
2020/12/12 02:20:32;;;;;;;37.97;17.33;;;5.70;98.50;;;;;;5015127;28;20378;-71
2020/12/12 02:22:58;;;;;;;36.35;16.90;;;5.90;98.50;;;;;;5014128;28;20034;-70
2020/12/12 02:25:24;;;;;;;32.22;15.43;;;5.90;98.40;;;;;;5014816;28;20056;-70
2020/12/12 02:27:52;;;;;;;34.40;16.42;;;5.80;98.40;;;;;;5014846;28;20026;-70
2020/12/12 02:30:18;;;;;;;40.28;18.08;;;5.80;98.40;;;;;;5016325;28;20018;-71
2020/12/12 02:32:43;;;;;;;36.85;15.57;;;5.80;98.40;;;;;;5014799;28;20048;-71
2020/12/12 02:35:09;;;;;;;34.70;15.88;;;5.90;98.30;;;;;;5015189;28;20084;-71
2020/12/12 02:37:35;;;;;;;39.25;16.90;;;5.90;98.20;;;;;;5015233;28;20037;-71
2020/12/12 02:40:01;;;;;;;37.13;16.70;;;5.90;98.10;;;;;;5014721;28;20048;-71
2020/12/12 02:42:27;;;;;;;34.33;17.40;;;5.90;98.10;;;;;;5014791;28;20068;-69
2020/12/12 02:44:56;;;;;;;36.28;15.80;;;5.80;98.10;;;;;;5016349;28;20041;-71
2020/12/12 02:47:22;;;;;;;40.13;17.67;;;5.80;98.30;;;;;;5014436;28;20085;-71
2020/12/12 02:50:14;;;;;;;40.70;16.60;;;5.80;98.30;;;;;;5014288;28;20192;-70
2020/12/12 02:52:42;;;;;;;37.72;17.50;;;5.70;98.40;;;;;;5011013;28;20041;-70
2020/12/12 02:55:10;;;;;;;40.30;17.85;;;5.70;98.40;;;;;;5014575;28;20172;-72
2020/12/12 02:57:37;;;;;;;35.40;16.67;;;5.70;98.50;;;;;;5013154;28;20022;-72
2020/12/12 03:00:08;;;;;;;36.38;16.90;;;5.80;98.50;;;;;;5014968;28;20036;-71
2020/12/12 03:02:34;;;;;;;35.42;16.75;;;5.70;98.40;;;;;;5013970;28;20042;-70
2020/12/12 03:05:00;;;;;;;36.10;16.65;;;5.80;98.40;;;;;;5013734;28;20576;-72
2020/12/12 03:07:26;;;;;;;39.28;17.77;;;5.80;98.40;;;;;;5014382;28;20041;-71
2020/12/12 03:09:51;;;;;;;37.10;16.95;;;5.90;98.50;;;;;;5014159;28;20033;-71
2020/12/12 03:12:17;;;;;;;42.72;17.90;;;5.80;98.30;;;;;;5015591;28;20018;-70
2020/12/12 03:14:43;;;;;;;39.55;17.65;;;5.80;98.30;;;;;;5014264;28;20448;-70
2020/12/12 03:17:09;;;;;;;41.67;17.67;;;5.80;98.40;;;;;;5013924;28;20042;-71
2020/12/12 03:19:38;;;;;;;43.50;17.75;;;5.80;98.30;;;;;;5014050;28;20046;-71
2020/12/12 03:22:05;;;;;;;33.88;16.55;;;5.90;98.50;;;;;;5013942;28;20034;-71
2020/12/12 03:24:31;;;;;;;37.13;16.80;;;5.90;98.40;;;;;;5013742;28;20368;-70
2020/12/12 03:26:57;;;;;;;37.08;16.83;;;5.80;98.30;;;;;;5015488;28;20336;-70
2020/12/12 03:29:23;;;;;;;35.05;17.60;;;5.70;98.50;;;;;;5013918;28;20048;-72
2020/12/12 03:31:48;;;;;;;36.55;17.02;;;5.70;98.60;;;;;;5011914;28;20038;-71
2020/12/12 03:34:14;;;;;;;34.63;16.80;;;5.80;98.50;;;;;;5013534;28;20035;-71
2020/12/12 03:36:40;;;;;;;39.53;17.70;;;5.80;98.60;;;;;;5012974;28;20077;-71
2020/12/12 03:39:05;;;;;;;38.38;18.73;;;5.70;98.60;;;;;;5015158;28;20064;-71
2020/12/12 03:41:31;;;;;;;44.85;20.77;;;5.80;98.50;;;;;;5013439;28;20033;-71
2020/12/12 03:43:57;;;;;;;43.55;20.38;;;5.80;98.40;;;;;;5012536;28;20053;-72
2020/12/12 03:46:22;;;;;;;38.50;18.13;;;6.00;98.40;;;;;;5013624;28;20061;-71
2020/12/12 03:48:48;;;;;;;37.25;16.88;;;5.90;98.30;;;;;;5013385;28;20037;-71
2020/12/12 03:51:13;;;;;;;40.05;18.30;;;5.90;98.40;;;;;;5014994;28;20404;-71
2020/12/12 03:53:39;;;;;;;41.45;19.15;;;6.00;98.40;;;;;;5013162;28;20380;-71
2020/12/12 03:56:05;;;;;;;41.42;18.75;;;5.90;98.50;;;;;;5012310;28;20317;-72
2020/12/12 03:58:30;;;;;;;40.15;18.85;;;6.00;98.50;;;;;;5012429;28;20529;-70
2020/12/12 04:00:56;;;;;;;40.10;17.77;;;6.10;98.40;;;;;;5012905;28;20030;-71
2020/12/12 04:03:22;;;;;;;38.10;18.67;;;6.10;98.40;;;;;;5012990;28;20483;-72
2020/12/12 04:05:48;;;;;;;42.42;19.02;;;6.10;98.40;;;;;;5014593;28;20062;-70
2020/12/12 04:08:14;;;;;;;38.05;18.58;;;6.00;98.50;;;;;;5012770;28;20034;-70
2020/12/12 04:10:39;;;;;;;35.78;17.77;;;6.30;98.70;;;;;;5011093;28;20045;-72
2020/12/12 04:13:05;;;;;;;38.78;17.83;;;6.00;98.70;;;;;;5012903;28;20030;-71
2020/12/12 04:15:31;;;;;;;43.72;18.55;;;6.20;98.60;;;;;;5012806;28;20105;-71
2020/12/12 04:17:57;;;;;;;36.75;17.90;;;6.20;98.80;;;;;;5014517;28;20120;-71
2020/12/12 04:20:23;;;;;;;39.03;18.80;;;6.10;98.90;;;;;;5012785;28;20042;-71
2020/12/12 04:22:49;;;;;;;35.50;16.73;;;6.10;99.00;;;;;;5012702;28;20057;-70
2020/12/12 04:25:15;;;;;;;39.55;19.90;;;6.20;98.80;;;;;;5012867;28;20571;-72
2020/12/12 04:27:42;;;;;;;38.75;18.02;;;6.20;98.80;;;;;;5012613;28;20041;-71
2020/12/12 04:30:07;;;;;;;40.63;19.58;;;6.20;98.70;;;;;;5014424;28;20460;-71
2020/12/12 04:32:33;;;;;;;44.97;19.67;;;6.10;98.80;;;;;;5012502;28;20045;-72
2020/12/12 04:34:59;;;;;;;39.75;18.52;;;6.20;98.70;;;;;;5012383;28;20042;-71
2020/12/12 04:37:24;;;;;;;39.38;18.33;;;6.10;98.70;;;;;;5012079;28;20467;-72
2020/12/12 04:39:50;;;;;;;39.00;18.38;;;6.20;98.70;;;;;;5012471;28;20061;-71
2020/12/12 04:42:17;;;;;;;40.67;19.13;;;6.30;98.70;;;;;;5013085;28;20022;-71
2020/12/12 04:44:43;;;;;;;39.55;19.00;;;6.30;98.40;;;;;;5012449;28;20103;-71
2020/12/12 04:47:11;;;;;;;38.50;17.83;;;6.20;98.60;;;;;;5011954;28;20128;-72
2020/12/12 04:49:37;;;;;;;45.60;19.48;;;6.10;98.60;;;;;;5012169;28;20030;-70
2020/12/12 04:52:04;;;;;;;39.17;18.63;;;6.20;98.70;;;;;;5012227;28;20088;-71
2020/12/12 04:54:35;;;;;;;43.43;18.83;;;6.20;98.70;;;;;;5012110;28;20056;-70
2020/12/12 04:57:04;;;;;;;39.40;18.25;;;6.10;98.60;;;;;;5013859;28;20157;-71
2020/12/12 04:59:32;;;;;;;45.90;19.00;;;6.10;98.60;;;;;;5011950;28;20104;-71
2020/12/12 05:01:58;;;;;;;40.70;19.98;;;6.10;98.70;;;;;;5010773;28;20351;-71
2020/12/12 05:04:24;;;;;;;41.90;18.65;;;6.10;98.60;;;;;;5012001;28;20395;-71
2020/12/12 05:06:50;;;;;;;42.67;19.45;;;6.10;98.70;;;;;;5011895;28;20048;-71
2020/12/12 05:09:15;;;;;;;41.38;18.77;;;6.00;98.80;;;;;;5013595;28;20113;-71
2020/12/12 05:11:45;;;;;;;39.83;17.73;;;5.90;98.60;;;;;;5012059;28;20124;-71
2020/12/12 05:14:10;;;;;;;38.97;18.10;;;6.00;98.70;;;;;;5011874;28;20421;-72
2020/12/12 05:16:36;;;;;;;37.20;18.08;;;6.00;98.50;;;;;;5011878;28;20133;-70
2020/12/12 05:19:04;;;;;;;37.47;17.92;;;6.00;98.60;;;;;;5011848;28;20037;-71
2020/12/12 05:21:30;;;;;;;40.22;18.00;;;6.00;98.50;;;;;;5011704;28;20072;-70
2020/12/12 05:23:55;;;;;;;38.42;19.20;;;5.90;98.40;;;;;;5013531;28;20033;-72
2020/12/12 05:26:24;;;;;;;38.67;18.55;;;5.90;98.40;;;;;;5011695;28;20045;-71
2020/12/12 05:28:50;;;;;;;;;;;5.80;98.60;;;;;;5011991;28;20088;-70
2020/12/12 05:31:16;;;;;;;41.63;17.58;;;5.80;98.80;;;;;;5011793;28;19932;-71
2020/12/12 05:33:42;;;;;;;40.40;17.75;;;5.90;98.60;;;;;;5010564;28;20033;-72
2020/12/12 05:36:11;;;;;;;36.05;17.73;;;5.90;98.60;;;;;;5013462;28;20038;-72
2020/12/12 05:38:37;;;;;;;39.50;18.80;;;5.90;98.50;;;;;;5011398;28;20467;-72
2020/12/12 05:41:03;;;;;;;44.08;18.83;;;5.90;98.40;;;;;;5010484;28;20030;-71
2020/12/12 05:43:36;;;;;;;36.50;17.50;;;5.90;98.70;;;;;;5011564;28;20046;-71
2020/12/12 05:46:02;;;;;;;38.80;17.80;;;5.90;98.60;;;;;;5011430;28;20436;-71
2020/12/12 05:48:28;;;;;;;34.88;16.33;;;5.90;98.80;;;;;;5011527;28;20041;-72
2020/12/12 05:50:54;;;;;;;32.53;17.73;;;5.90;98.80;;;;;;5013032;28;20026;-71
2020/12/12 05:53:20;;;;;;;37.78;18.88;;;6.00;98.80;;;;;;5011534;28;20049;-71
2020/12/12 05:55:46;;;;;;;34.92;17.33;;;6.00;98.60;;;;;;5015218;28;20367;-71
2020/12/12 05:58:14;;;;;;;40.92;19.33;;;6.00;98.70;;;;;;5015330;28;20411;-71
2020/12/12 06:00:41;;;;;;;38.45;17.75;;;5.90;98.70;;;;;;5015354;28;20084;-71
2020/12/12 06:03:21;;;;;;;37.57;17.50;;;6.00;98.70;;;;;;5017325;28;20026;-71
2020/12/12 06:05:51;;;;;;;39.05;18.42;;;6.00;98.90;;;;;;5015923;28;20042;-71
2020/12/12 06:08:33;;;;;;;39.72;17.98;;;6.00;98.60;;;;;;5015213;28;20030;-72
2020/12/12 06:11:04;;;;;;;36.67;17.92;;;6.00;98.60;;;;;;5015264;28;20042;-72
2020/12/12 06:13:38;;;;;;;34.55;16.95;;;6.10;98.60;;;;;;5015160;28;20034;-71
2020/12/12 06:16:08;;;;;;;49.00;22.70;;;6.10;98.60;;;;;;5015342;28;20026;-71
2020/12/12 06:19:03;;;;;;;38.45;19.25;;;6.10;98.80;;;;;;5014925;28;20034;-71
2020/12/12 06:21:29;;;;;;;38.20;16.88;;;6.10;98.40;;;;;;5014909;28;20030;-71
2020/12/12 06:23:57;;;;;;;41.55;18.50;;;6.10;98.50;;;;;;5016633;28;20049;-70
2020/12/12 06:26:35;;;;;;;38.35;18.35;;;6.00;98.40;;;;;;5014947;28;20062;-71
2020/12/12 06:29:00;;;;;;;;;;;6.10;98.60;;;;;;5015087;28;20033;-71
2020/12/12 06:31:27;;;;;;;37.13;16.52;;;6.20;98.50;;;;;;5014807;28;19971;-71
2020/12/12 06:33:54;;;;;;;35.83;15.93;;;6.20;98.50;;;;;;5013562;28;20433;-70
2020/12/12 06:36:27;;;;;;;36.60;15.82;;;6.20;98.50;;;;;;5016525;28;20022;-71
2020/12/12 06:39:20;;;;;;;34.38;17.05;;;6.20;98.40;;;;;;5015007;28;20041;-71
2020/12/12 06:41:48;;;;;;;36.40;17.42;;;6.20;98.60;;;;;;5014033;28;20040;-70
2020/12/12 06:44:31;;;;;;;32.83;15.55;;;6.20;98.50;;;;;;5014600;28;20042;-71
2020/12/12 06:46:56;;;;;;;42.25;17.42;;;6.20;98.40;;;;;;5014382;28;20042;-70
2020/12/12 06:49:22;;;;;;;36.60;17.48;;;6.20;98.50;;;;;;5014657;28;20029;-70
2020/12/12 06:51:51;;;;;;;36.35;16.85;;;6.20;98.50;;;;;;5014386;28;20022;-70
2020/12/12 06:54:18;;;;;;;34.17;17.27;;;6.10;98.60;;;;;;5015957;28;20050;-70
2020/12/12 06:56:44;;;;;;;32.90;16.20;;;6.00;98.60;;;;;;5014383;28;20077;-71
2020/12/12 06:59:30;;;;;;;37.13;17.25;;;6.10;98.60;;;;;;5014276;28;20058;-71
2020/12/12 07:02:00;;;;;;;30.45;16.33;;;6.00;98.70;;;;;;5014126;28;20033;-71
2020/12/12 07:04:34;;;;;;;39.30;17.50;;;6.00;98.90;;;;;;5014280;28;20444;-72
2020/12/12 07:07:01;;;;;;;40.55;17.63;;;6.10;98.80;;;;;;5013591;28;20396;-70
2020/12/12 07:09:28;;;;;;;40.90;17.92;;;6.20;98.70;;;;;;5014165;28;20396;-70
2020/12/12 07:11:55;;;;;;;38.60;16.98;;;6.30;98.70;;;;;;5015060;28;20400;-71
2020/12/12 07:14:21;;;;;;;49.10;18.87;;;6.30;98.50;;;;;;5013115;28;20132;-71
2020/12/12 07:16:47;;;;;;;39.35;17.58;;;6.30;98.50;;;;;;5014201;28;20425;-71
2020/12/12 07:19:13;;;;;;;45.70;18.83;;;6.30;98.50;;;;;;5014132;28;20030;-71
2020/12/12 07:21:41;;;;;;;56.55;19.38;;;6.20;98.50;;;;;;5014438;28;20336;-72
2020/12/12 07:24:07;;;;;;;45.65;18.95;;;6.30;98.60;;;;;;5015493;28;20460;-71
2020/12/12 07:26:33;;;;;;;52.38;19.40;;;6.40;98.50;;;;;;5013445;28;20086;-70
2020/12/12 07:28:58;;;;;;;52.53;18.60;;;6.30;98.50;;;;;;5013749;28;20053;-70
2020/12/12 07:31:25;;;;;;;51.33;18.92;;;6.30;98.50;;;;;;5014015;28;20038;-70
2020/12/12 07:33:50;;;;;;;53.83;18.73;;;6.30;98.60;;;;;;5013788;28;20463;-69
2020/12/12 07:36:17;;;;;;;49.90;18.50;;;6.30;98.60;;;;;;5015149;28;20029;-73
2020/12/12 07:38:43;;;;;;;41.15;17.58;;;6.30;98.50;;;;;;5011407;28;20129;-70
2020/12/12 07:41:13;;;;;;;46.63;17.63;;;6.20;98.40;;;;;;5011396;28;20534;-71
2020/12/12 07:43:55;;;;;;;48.75;18.15;;;6.20;98.60;;;;;;5012669;28;20077;-71
2020/12/12 07:46:38;;;;;;;46.53;18.83;;;6.20;98.60;;;;;;5012558;28;20042;-72
2020/12/12 07:49:05;;;;;;;47.72;18.00;;;6.30;98.70;;;;;;5012394;28;20467;-69
2020/12/12 07:51:31;;;;;;;47.10;17.85;;;6.50;98.60;;;;;;5012261;28;20037;-71
2020/12/12 07:53:57;;;;;;;43.90;17.50;;;6.40;98.50;;;;;;5013595;28;20125;-70
2020/12/12 07:56:24;;;;;;;44.78;18.55;;;6.40;98.50;;;;;;5011972;28;20068;-71
2020/12/12 07:59:00;;;;;;;45.60;18.13;;;6.40;98.50;;;;;;5011883;28;20034;-71
2020/12/12 08:01:26;;;;;;;55.50;19.55;;;6.40;98.50;;;;;;5011912;28;20056;-70
2020/12/12 08:03:51;;;;;;;52.95;20.70;;;6.40;98.40;;;;;;5011970;28;20026;-70
2020/12/12 08:06:17;;;;;;;64.35;22.15;;;6.50;98.50;;;;;;5013440;28;20032;-70
2020/12/12 08:08:56;;;;;;;56.25;20.30;;;6.50;98.40;;;;;;5011637;28;20034;-71
2020/12/12 08:11:22;;;;;;;61.25;21.17;;;6.60;98.40;;;;;;5010811;28;20041;-70
2020/12/12 08:13:48;;;;;;;53.80;19.58;;;6.60;98.20;;;;;;5010764;28;20044;-71
2020/12/12 08:16:35;;;;;;;60.97;20.98;;;6.50;98.30;;;;;;4993961;28;20030;-70
2020/12/12 08:19:05;;;;;;;51.42;20.08;;;6.50;98.20;;;;;;5010915;28;20045;-73
2020/12/12 08:21:31;;;;;;;47.58;18.38;;;6.50;98.20;;;;;;5011632;28;20117;-71
2020/12/12 08:23:57;;;;;;;47.85;17.90;;;6.50;98.30;;;;;;5012998;28;20022;-71
2020/12/12 08:26:24;;;;;;;47.95;19.48;;;6.50;98.40;;;;;;5011454;28;20042;-70
2020/12/12 08:28:50;;;;;;;52.58;19.30;;;6.50;98.40;;;;;;5011286;28;20034;-72
2020/12/12 08:31:20;;;;;;;52.45;19.30;;;6.50;98.50;;;;;;5011402;28;20034;-71
2020/12/12 08:33:52;;;;;;;45.08;18.58;;;6.60;98.50;;;;;;5010291;28;20034;-69
2020/12/12 08:36:23;;;;;;;46.78;18.02;;;6.50;98.30;;;;;;5013108;28;20045;-71
2020/12/12 08:38:59;;;;;;;43.42;17.10;;;6.50;98.40;;;;;;5011734;28;20050;-72
2020/12/12 08:41:31;;;;;;;40.22;18.30;;;6.50;98.50;;;;;;5011363;28;20038;-72
2020/12/12 08:43:57;;;;;;;46.53;17.98;;;6.50;98.60;;;;;;5009955;28;20033;-73
2020/12/12 08:46:24;;;;;;;44.47;17.77;;;6.60;98.60;;;;;;5011390;28;20038;-72
2020/12/12 08:48:50;;;;;;;43.90;18.52;;;6.70;98.40;;;;;;5010809;28;20490;-73
2020/12/12 08:51:23;;;;;;;44.53;19.27;;;6.70;98.40;;;;;;5013073;28;20041;-71
2020/12/12 08:53:50;;;;;;;42.08;17.95;;;6.70;98.60;;;;;;5011146;28;20069;-70
2020/12/12 08:56:23;;;;;;;37.53;17.23;;;6.80;98.30;;;;;;5011114;28;20049;-72
2020/12/12 08:59:00;;;;;;;41.85;18.08;;;6.80;98.30;;;;;;5010946;28;20042;-72
2020/12/12 09:01:43;;;;;;;40.55;17.58;;;6.80;98.40;;;;;;5010082;28;20034;-71
2020/12/12 09:04:08;;;;;;;33.20;16.33;;;6.80;98.40;;;;;;5010292;28;20026;-72
2020/12/12 09:06:46;;;;;;;32.70;16.00;;;6.80;98.30;;;;;;5010920;28;20045;-70
2020/12/12 09:09:14;;;;;;;36.57;15.97;;;6.80;98.40;;;;;;5012186;28;20382;-70
2020/12/12 09:12:00;;;;;;;33.28;15.90;;;6.90;98.30;;;;;;5010844;28;20346;-71
2020/12/12 09:14:28;;;;;;;33.42;16.33;;;7.00;98.20;;;;;;5010391;28;20037;-70
2020/12/12 09:16:57;;;;;;;;;;;7.00;98.10;;;;;;5010003;28;20034;-72
2020/12/12 09:19:23;;;;;;;33.53;15.02;;;6.90;98.10;;;;;;5011084;28;19913;-71
2020/12/12 09:21:49;;;;;;;31.20;15.50;;;6.80;98.20;;;;;;5010271;28;20084;-71
2020/12/12 09:24:15;;;;;;;29.63;14.35;;;6.80;98.30;;;;;;5011258;28;20424;-71
2020/12/12 09:26:42;;;;;;;31.13;15.00;;;6.80;98.40;;;;;;5010390;28;20033;-70
2020/12/12 09:29:07;;;;;;;32.15;15.90;;;6.90;98.30;;;;;;5010088;28;20042;-70
2020/12/12 09:31:34;;;;;;;32.10;17.05;;;7.00;98.30;;;;;;5010717;28;20490;-71
2020/12/12 09:33:59;;;;;;;30.58;15.63;;;7.10;98.20;;;;;;5010341;28;20070;-72
2020/12/12 09:36:25;;;;;;;26.48;14.20;;;7.20;98.10;;;;;;5010538;28;20092;-71
2020/12/12 09:38:51;;;;;;;28.42;15.48;;;7.20;97.90;;;;;;5011829;28;20026;-70
2020/12/12 09:41:16;;;;;;;28.55;14.73;;;7.10;97.90;;;;;;5010229;28;20044;-78
2020/12/12 09:43:43;;;;;;;30.73;14.65;;;7.10;98.00;;;;;;5010805;28;20348;-77
2020/12/12 09:46:09;;;;;;;33.08;15.55;;;7.10;98.00;;;;;;5010224;28;20793;-79
2020/12/12 09:48:36;;;;;;;27.23;14.30;;;7.00;98.10;;;;;;5009652;28;20061;-79
2020/12/12 09:51:03;;;;;;;27.80;14.70;;;7.20;97.90;;;;;;5012018;28;20502;-79
2020/12/12 09:53:29;;;;;;;31.13;14.43;;;7.20;98.00;;;;;;5001286;28;20058;-79
2020/12/12 09:55:56;;;;;;;30.67;16.23;;;7.30;97.90;;;;;;5010407;28;20030;-77
2020/12/12 09:58:23;;;;;;;32.33;14.52;;;7.20;97.70;;;;;;5010256;28;20053;-76
2020/12/12 10:00:49;;;;;;;27.57;14.10;;;7.20;97.80;;;;;;5010355;28;20096;-75
2020/12/12 10:03:14;;;;;;;26.52;13.82;;;7.10;97.70;;;;;;5011816;28;20263;-71
2020/12/12 10:05:40;;;;;;;27.15;13.55;;;7.10;97.90;;;;;;5010396;28;20095;-70
2020/12/12 10:08:06;;;;;;;26.60;13.57;;;7.20;98.00;;;;;;5010089;28;20041;-70
2020/12/12 10:10:32;;;;;;;32.53;14.30;;;7.30;97.90;;;;;;5010051;28;20030;-71
2020/12/12 10:12:59;;;;;;;25.17;13.73;;;7.30;97.70;;;;;;5010174;28;20420;-70
2020/12/12 10:15:25;;;;;;;30.80;15.65;;;7.30;97.60;;;;;;5010156;28;20087;-69
2020/12/12 10:17:51;;;;;;;29.02;15.20;;;7.30;97.80;;;;;;5011441;28;20034;-70
2020/12/12 10:20:17;;;;;;;28.00;16.27;;;7.50;97.90;;;;;;5009996;28;20045;-70
2020/12/12 10:22:44;;;;;;;30.13;14.88;;;7.50;97.70;;;;;;5008888;28;20045;-69
2020/12/12 10:25:10;;;;;;;31.08;15.95;;;7.50;97.50;;;;;;5010284;28;20127;-70
2020/12/12 10:27:37;;;;;;;28.10;14.88;;;7.50;97.50;;;;;;5009672;28;20042;-72
2020/12/12 10:30:05;;;;;;;30.88;15.45;;;7.60;97.70;;;;;;5011414;28;20013;-72
2020/12/12 10:32:31;;;;;;;26.15;13.55;;;7.70;97.50;;;;;;5009896;28;20325;-71
2020/12/12 10:34:56;;;;;;;28.52;15.07;;;7.60;97.30;;;;;;5009830;28;20451;-70
2020/12/12 10:37:22;;;;;;;30.10;15.38;;;7.70;97.50;;;;;;5009785;28;20120;-71
2020/12/12 10:42:32;;;;;;;29.35;15.00;;;7.70;97.40;;;;;;5013133;28;20085;-72
2020/12/12 10:44:59;;;;;;;28.13;14.02;;;7.70;97.50;;;;;;5014859;28;20022;-68
2020/12/12 10:47:25;;;;;;;28.90;15.90;;;7.80;97.40;;;;;;5012045;28;20048;-69
2020/12/12 10:49:51;;;;;;;34.47;14.82;;;7.70;97.20;;;;;;5013325;28;20041;-69
2020/12/12 10:52:16;;;;;;;28.77;14.80;;;7.70;97.30;;;;;;5012336;28;20026;-70
2020/12/12 10:54:46;;;;;;;28.50;14.80;;;7.70;97.20;;;;;;5012103;28;20104;-71
2020/12/12 10:57:12;;;;;;;28.42;14.50;;;7.80;97.20;;;;;;5013694;28;20018;-72
2020/12/12 10:59:42;;;;;;;32.50;14.65;;;7.80;97.30;;;;;;5013091;28;20038;-68
2020/12/12 11:02:11;;;;;;;25.98;14.13;;;7.80;97.40;;;;;;5012754;28;20460;-70
2020/12/12 11:04:41;;;;;;;32.03;14.20;;;7.70;97.20;;;;;;5013177;28;20038;-69
2020/12/12 11:07:08;;;;;;;31.70;15.15;;;7.80;97.30;;;;;;5012778;28;20363;-71
2020/12/12 11:09:35;;;;;;;33.47;15.80;;;7.80;97.30;;;;;;5012983;28;20091;-70
2020/12/12 11:12:02;;;;;;;29.02;15.32;;;7.90;97.30;;;;;;5014518;28;20018;-69
2020/12/12 11:14:29;;;;;;;25.20;14.93;;;7.80;97.30;;;;;;5013195;28;20041;-71
2020/12/12 11:16:56;;;;;;;29.48;15.23;;;7.80;97.50;;;;;;5012731;28;20029;-70
2020/12/12 11:19:23;;;;;;;29.77;15.55;;;7.70;97.50;;;;;;5012537;28;20037;-71
2020/12/12 11:21:48;;;;;;;33.72;15.40;;;7.70;97.90;;;;;;5012317;28;20161;-70
2020/12/12 11:24:14;;;;;;;29.60;15.38;;;7.90;97.70;;;;;;5012997;28;20045;-70
2020/12/12 11:26:40;;;;;;;31.50;15.05;;;7.90;97.50;;;;;;5012849;28;20466;-70
2020/12/12 11:29:06;;;;;;;31.67;14.93;;;7.90;97.60;;;;;;5011691;28;20100;-70
2020/12/12 11:31:32;;;;;;;26.98;14.73;;;7.80;97.50;;;;;;5012254;28;20046;-70
2020/12/12 11:34:10;;;;;;;24.73;14.70;;;8.00;97.70;;;;;;5011706;28;20128;-71
2020/12/12 11:39:27;;;;;;;41.40;14.73;;;8.00;97.50;;;;;;5014312;28;20491;-71
2020/12/12 11:47:22;;;;;;;28.27;14.38;;;8.10;97.70;;;;;;5012133;28;20034;-71
2020/12/12 11:49:47;;;;;;;23.80;13.48;;;8.10;97.60;;;;;;5011775;28;20052;-72
2020/12/12 11:52:13;;;;;;;28.73;14.65;;;8.10;97.50;;;;;;5011192;28;20397;-70
2020/12/12 11:54:39;;;;;;;32.80;14.15;;;8.10;97.60;;;;;;5011764;28;20058;-71
2020/12/12 11:57:05;;;;;;;28.27;14.65;;;8.20;97.80;;;;;;5013632;28;20021;-71
2020/12/12 11:59:31;;;;;;;25.60;14.00;;;8.20;97.70;;;;;;5010695;28;20092;-79
2020/12/12 12:01:57;;;;;;;26.08;14.15;;;8.20;97.60;;;;;;5011922;28;20042;-69
2020/12/12 12:04:23;;;;;;;31.65;14.95;;;8.20;97.50;;;;;;5012012;28;20447;-71
2020/12/12 12:06:49;;;;;;;26.02;14.20;;;8.20;97.60;;;;;;5008250;28;20053;-72
2020/12/12 12:09:36;;;;;;;26.02;13.98;;;8.30;97.50;;;;;;5013159;28;20018;-71
2020/12/12 12:12:02;;;;;;;28.15;14.38;;;8.20;97.50;;;;;;5012103;28;20033;-71
2020/12/12 12:14:28;;;;;;;25.25;14.20;;;8.40;97.70;;;;;;5010783;28;20048;-70
2020/12/12 12:16:54;;;;;;;25.88;13.23;;;8.40;97.50;;;;;;5011697;28;20120;-71
2020/12/12 12:19:19;;;;;;;26.13;14.63;;;8.40;97.30;;;;;;5011369;28;20042;-71
2020/12/12 12:21:49;;;;;;;27.67;13.73;;;8.40;97.10;;;;;;5011316;28;20062;-71
2020/12/12 12:24:16;;;;;;;27.85;14.07;;;8.40;97.30;;;;;;5012002;28;20141;-72
2020/12/12 12:26:43;;;;;;;28.08;14.32;;;8.40;97.30;;;;;;5010166;28;20113;-71
2020/12/12 12:29:12;;;;;;;29.17;14.63;;;8.40;97.30;;;;;;5011701;28;20080;-71
2020/12/12 12:31:39;;;;;;;21.63;11.85;;;8.40;97.30;;;;;;5011027;28;20044;-70
2020/12/12 12:34:06;;;;;;;26.88;13.40;;;8.40;97.20;;;;;;5011041;28;20559;-71
2020/12/12 12:36:32;;;;;;;26.55;13.60;;;8.40;97.00;;;;;;5011238;28;20034;-74
2020/12/12 12:38:59;;;;;;;24.98;13.18;;;8.50;97.00;;;;;;5013019;28;20096;-69
2020/12/12 12:41:27;;;;;;;29.02;13.45;;;8.50;97.30;;;;;;5011557;28;20037;-71
2020/12/12 12:43:54;;;;;;;26.55;13.38;;;8.60;97.40;;;;;;5011037;28;20045;-70
2020/12/12 12:46:21;;;;;;;26.30;11.98;;;8.60;97.10;;;;;;5011365;28;20091;-70
2020/12/12 12:48:47;;;;;;;23.15;12.50;;;8.60;96.90;;;;;;5011044;28;20034;-70
2020/12/12 12:51:14;;;;;;;20.42;10.93;;;8.50;96.80;;;;;;5012896;28;20040;-69